Time;durP1;ratioP1;P1;durP2;ratioP2;P2;SDS_P1;SDS_P2;PMS_P1;PMS_P2;Temp;Humidity;BMP_temperature;BMP_pressure;BME280_temperature;BME280_humidity;BME280_pressure;Samples;Min_cycle;Max_cycle;Signal;HPM_P1;HPM_P2
2022/05/01 00:00:14;;;;;;;0.10;0.10;;;;;;;20.78;40.37;101996.00;5129699;27;20474;-26
2022/05/01 00:02:40;;;;;;;0.20;0.20;;;;;;;20.78;40.34;101998.78;5128126;28;20472;-27
2022/05/01 00:05:06;;;;;;;0.20;0.20;;;;;;;20.78;40.13;101999.59;5128502;28;20046;-27
2022/05/01 00:07:32;;;;;;;0.10;0.10;;;;;;;20.78;40.44;101999.59;5127743;28;20051;-28
2022/05/01 00:09:58;;;;;;;0.20;0.20;;;;;;;20.77;40.29;101997.94;5126960;27;20134;-28
2022/05/01 00:12:24;;;;;;;0.20;0.20;;;;;;;20.77;40.38;101992.41;5128327;27;20047;-28
2022/05/01 00:14:50;;;;;;;0.17;0.17;;;;;;;20.78;40.32;101999.59;5125163;28;20096;-27
2022/05/01 00:17:15;;;;;;;0.15;0.15;;;;;;;20.78;40.27;101993.22;5128731;28;20039;-27
2022/05/01 00:19:41;;;;;;;0.10;0.10;;;;;;;20.78;40.24;101994.06;5126969;28;20503;-27
2022/05/01 00:22:22;;;;;;;0.10;0.10;;;;;;;20.78;39.99;101983.00;5127434;28;20043;-27
2022/05/01 00:24:48;;;;;;;0.10;0.10;;;;;;;20.79;40.33;101989.34;5127032;28;20067;-27
2022/05/01 00:27:13;;;;;;;0.10;0.10;;;;;;;20.77;40.24;101974.97;5128715;28;20130;-26
2022/05/01 00:29:39;;;;;;;0.10;0.10;;;;;;;20.78;40.50;101987.69;5127544;28;20039;-26
2022/05/01 00:32:05;;;;;;;0.10;0.10;;;;;;;20.77;40.22;101984.09;5128545;27;20073;-28
2022/05/01 00:37:19;;;;;;;0.10;0.10;;;;;;;20.78;40.27;101987.69;5113006;28;20565;-27
2022/05/01 00:39:44;;;;;;;0.10;0.10;;;;;;;20.78;40.40;101982.16;5128624;28;20533;-27
2022/05/01 00:42:11;;;;;;;0.15;0.15;;;;;;;20.77;40.13;101992.41;5125722;28;20039;-27
2022/05/01 00:44:36;;;;;;;0.20;0.20;;;;;;;20.77;40.83;101986.88;5125938;28;20051;-27
2022/05/01 00:47:02;;;;;;;0.10;0.10;;;;;;;20.79;40.30;101989.34;5109856;28;20051;-27
2022/05/01 00:49:28;;;;;;;0.10;0.10;;;;;;;20.78;40.25;101985.75;5127113;28;20130;-27
2022/05/01 00:51:57;;;;;;;0.20;0.20;;;;;;;20.77;40.17;101988.81;5110324;28;20047;-27
2022/05/01 00:54:24;;;;;;;0.10;0.10;;;;;;;20.77;40.40;101980.50;5129047;28;20548;-27
2022/05/01 00:56:52;;;;;;;0.10;0.10;;;;;;;20.77;40.39;101969.44;5109672;28;20137;-27
2022/05/01 00:59:19;;;;;;;0.10;0.10;;;;;;;20.77;40.31;101974.97;5092844;28;20078;-29
2022/05/01 01:01:46;;;;;;;0.10;0.10;;;;;;;20.77;40.15;101975.78;5108575;28;20067;-26
2022/05/01 01:04:12;;;;;;;0.10;0.10;;;;;;;20.76;40.15;101974.09;5109216;28;20039;-26
2022/05/01 01:06:38;;;;;;;0.10;0.10;;;;;;;20.77;40.32;101980.50;5127004;28;20054;-26
2022/05/01 01:09:04;;;;;;;0.10;0.10;;;;;;;20.78;40.41;101977.44;5126588;28;20462;-26
2022/05/01 01:11:30;;;;;;;0.10;0.10;;;;;;;20.77;40.49;101964.72;5109449;28;20047;-26
2022/05/01 01:13:56;;;;;;;0.10;0.10;;;;;;;20.77;40.36;101974.97;5110225;28;20439;-27
2022/05/01 01:16:21;;;;;;;0.20;0.20;;;;;;;20.77;40.34;101972.19;5127705;28;20091;-27
2022/05/01 01:18:47;;;;;;;0.10;0.10;;;;;;;20.78;40.39;101979.38;5107583;28;20051;-27
2022/05/01 01:21:13;;;;;;;0.10;0.10;;;;;;;20.76;40.13;101982.41;5106621;28;20043;-28
2022/05/01 01:23:40;;;;;;;0.15;0.15;;;;;;;20.77;40.27;101978.56;5128154;28;20051;-27
2022/05/01 01:26:06;;;;;;;0.10;0.10;;;;;;;20.78;40.20;101987.69;5127002;28;20616;-27
2022/05/01 01:28:34;;;;;;;0.10;0.10;;;;;;;20.77;40.19;101984.09;5105301;28;20669;-27
2022/05/01 01:33:49;;;;;;;0.10;0.10;;;;;;;20.77;40.41;101989.63;5112720;28;20138;-27
2022/05/01 01:36:14;;;;;;;0.10;0.10;;;;;;;20.77;40.22;101988.81;5108202;28;20134;-27
2022/05/01 01:38:40;;;;;;;0.10;0.10;;;;;;;20.77;40.30;101986.03;5121989;27;20043;-27
2022/05/01 01:41:10;;;;;;;0.10;0.10;;;;;;;20.76;40.21;101990.72;5126018;28;20497;-27
2022/05/01 01:43:36;;;;;;;0.20;0.20;;;;;;;20.77;40.46;101991.56;5126239;27;20138;-26
2022/05/01 01:46:02;;;;;;;0.10;0.10;;;;;;;20.77;40.21;101992.41;5126153;28;20066;-27
2022/05/01 01:48:28;;;;;;;0.10;0.10;;;;;;;20.78;40.20;101994.06;5123179;28;20043;-26
2022/05/01 01:50:59;;;;;;;0.20;0.20;;;;;;;20.77;40.46;101988.81;5124924;28;20571;-27
2022/05/01 01:53:25;;;;;;;0.20;0.20;;;;;;;20.77;40.32;101988.81;5109310;28;20482;-28
2022/05/01 01:55:51;;;;;;;0.20;0.20;;;;;;;20.76;40.40;101985.19;5109621;28;20487;-27
2022/05/01 01:58:18;;;;;;;0.10;0.10;;;;;;;20.77;40.41;101984.09;5126010;28;20131;-27
2022/05/01 02:00:44;;;;;;;0.10;0.10;;;;;;;20.76;40.38;101981.56;5125855;28;20458;-27
2022/05/01 02:03:10;;;;;;;0.20;0.20;;;;;;;20.77;40.36;101983.28;5124056;28;20574;-27
2022/05/01 02:05:36;;;;;;;0.10;0.10;;;;;;;20.76;40.37;101985.19;5127087;28;20247;-28
2022/05/01 02:08:03;;;;;;;0.20;0.20;;;;;;;20.77;40.32;101980.50;5124058;28;20138;-27
2022/05/01 02:10:28;;;;;;;0.10;0.10;;;;;;;20.76;40.22;101982.41;5107091;28;20078;-27
2022/05/01 02:12:54;;;;;;;0.10;0.10;;;;;;;20.77;40.20;101974.97;5125518;28;20035;-27
2022/05/01 02:15:20;;;;;;;0.10;0.10;;;;;;;20.77;40.46;101972.19;5127810;28;20054;-28
2022/05/01 02:17:48;;;;;;;0.20;0.20;;;;;;;20.77;40.28;101974.97;5124764;28;20495;-27
2022/05/01 02:20:14;;;;;;;0.10;0.10;;;;;;;20.77;40.37;101972.19;5126110;28;20074;-27
2022/05/01 02:22:40;;;;;;;0.10;0.10;;;;;;;20.77;40.33;101970.25;5126297;28;20505;-27
2022/05/01 02:25:07;;;;;;;0.10;0.10;;;;;;;20.76;40.43;101960.25;5127682;28;20081;-26
2022/05/01 02:27:34;;;;;;;0.10;0.10;;;;;;;20.77;40.38;101963.88;5124521;28;20120;-27
2022/05/01 02:30:00;;;;;;;0.10;0.10;;;;;;;20.76;40.42;101965.78;5125967;28;20461;-28
2022/05/01 02:32:26;;;;;;;0.10;0.10;;;;;;;20.76;40.50;101963.03;5124672;28;20058;-28
2022/05/01 02:34:52;;;;;;;0.10;0.10;;;;;;;20.77;40.21;101959.19;5126001;28;20107;-28
2022/05/01 02:37:17;;;;;;;0.10;0.10;;;;;;;20.76;40.29;101963.03;5126953;28;20555;-26
2022/05/01 02:39:43;;;;;;;0.10;0.10;;;;;;;20.76;40.21;101960.25;5125670;28;20043;-28
2022/05/01 02:42:09;;;;;;;0.10;0.10;;;;;;;20.76;40.32;101960.25;5126694;28;20046;-27
2022/05/01 02:44:35;;;;;;;0.10;0.10;;;;;;;20.76;40.48;101960.25;5126723;28;20406;-27
2022/05/01 02:47:01;;;;;;;0.10;0.10;;;;;;;20.76;40.25;101957.50;5125803;28;20054;-27
2022/05/01 02:49:27;;;;;;;0.10;0.10;;;;;;;20.76;40.33;101963.03;5089797;28;20043;-26
2022/05/01 02:51:53;;;;;;;0.10;0.10;;;;;;;20.76;40.32;101957.50;5127302;28;20069;-26
2022/05/01 02:54:21;;;;;;;0.10;0.10;;;;;;;20.76;40.23;101957.50;5125668;27;20103;-28
2022/05/01 02:56:49;;;;;;;0.10;0.10;;;;;;;20.76;40.18;101951.13;5128593;28;20105;-27
2022/05/01 02:59:16;;;;;;;0.10;0.10;;;;;;;20.76;40.26;101953.91;5129116;28;20147;-27
2022/05/01 03:01:43;;;;;;;0.10;0.10;;;;;;;20.76;40.43;101949.19;5129267;28;20077;-27
2022/05/01 03:04:09;;;;;;;0.17;0.17;;;;;;;20.76;40.21;101951.94;5129795;28;20043;-27
2022/05/01 03:06:35;;;;;;;0.10;0.10;;;;;;;20.75;40.50;101947.53;5128450;28;20537;-27
2022/05/01 03:09:00;;;;;;;0.20;0.20;;;;;;;20.76;40.41;101946.41;5128096;27;20080;-26
2022/05/01 03:11:26;;;;;;;0.20;0.20;;;;;;;20.76;40.28;101945.59;5129916;28;20047;-27
2022/05/01 03:13:52;;;;;;;0.10;0.10;;;;;;;20.76;40.37;101945.59;5128932;28;20507;-27
2022/05/01 03:16:18;;;;;;;0.10;0.10;;;;;;;20.76;40.45;101949.19;5129577;28;20039;-27
2022/05/01 03:24:18;;;;;;;0.10;0.10;;;;;;;20.75;40.21;101946.69;5114634;28;20078;-26
2022/05/01 03:26:43;;;;;;;0.10;0.10;;;;;;;20.75;40.23;101935.63;5128120;28;20130;-27
2022/05/01 03:29:10;;;;;;;0.20;0.20;;;;;;;20.75;40.40;101938.38;5130415;28;20051;-26
2022/05/01 03:31:37;;;;;;;0.20;0.20;;;;;;;20.75;40.24;101930.09;5109329;28;20093;-27
2022/05/01 03:34:04;;;;;;;0.10;0.10;;;;;;;20.74;40.51;101932.03;5129835;28;20088;-27
2022/05/01 03:36:30;;;;;;;0.10;0.10;;;;;;;20.75;40.41;101935.63;5127771;27;20370;-27
2022/05/01 03:38:56;;;;;;;0.10;0.10;;;;;;;20.75;40.51;101938.38;5109594;28;20133;-28
2022/05/01 03:41:22;;;;;;;0.15;0.15;;;;;;;20.76;40.45;101940.06;5110359;28;20130;-28
2022/05/01 03:43:47;;;;;;;0.10;0.10;;;;;;;20.75;40.21;101930.09;5128659;28;20046;-27
2022/05/01 03:46:13;;;;;;;0.10;0.10;;;;;;;20.75;40.25;101939.22;5130024;28;20442;-27
2022/05/01 03:48:39;;;;;;;0.10;0.10;;;;;;;20.74;40.48;101945.03;5128218;28;20138;-27
2022/05/01 03:51:04;;;;;;;0.10;0.10;;;;;;;20.75;40.32;101941.16;5129597;28;20047;-27
2022/05/01 03:53:30;;;;;;;0.10;0.10;;;;;;;20.74;40.31;101937.56;5128269;28;20509;-27
2022/05/01 03:55:56;;;;;;;0.10;0.10;;;;;;;20.73;40.22;101935.91;5129356;28;20039;-28
2022/05/01 03:58:21;;;;;;;0.10;0.10;;;;;;;20.74;40.24;101932.03;5128326;28;20088;-27
2022/05/01 04:00:48;;;;;;;0.10;0.10;;;;;;;20.75;40.29;101932.84;5129064;28;20054;-26
2022/05/01 04:03:15;;;;;;;0.10;0.10;;;;;;;20.75;40.09;101932.84;5110717;28;20039;-27
2022/05/01 04:05:41;;;;;;;0.10;0.10;;;;;;;20.74;40.46;101936.72;5129067;28;20039;-27
2022/05/01 04:08:08;;;;;;;0.10;0.10;;;;;;;20.76;40.42;101937.28;5125931;27;20092;-27
2022/05/01 04:10:41;;;;;;;0.10;0.10;;;;;;;20.74;40.28;101931.19;5110528;28;20229;-27
2022/05/01 04:13:07;;;;;;;0.10;0.10;;;;;;;20.75;40.35;101930.09;5127477;28;20070;-27
2022/05/01 04:15:33;;;;;;;0.10;0.10;;;;;;;20.75;40.33;101936.44;5094249;28;20122;-28
2022/05/01 04:17:58;;;;;;;0.10;0.10;;;;;;;20.74;40.67;101928.44;5129735;28;20079;-27
2022/05/01 04:20:25;;;;;;;0.10;0.10;;;;;;;20.75;40.23;101927.31;5127112;28;20058;-27
2022/05/01 04:22:51;;;;;;;0.10;0.10;;;;;;;20.75;40.29;101938.38;5129414;28;20479;-27
2022/05/01 04:25:19;;;;;;;0.20;0.20;;;;;;;20.75;40.33;101941.16;5107590;28;20099;-27
2022/05/01 04:27:45;;;;;;;0.10;0.10;;;;;;;20.74;40.05;101945.88;5109097;28;20134;-27
2022/05/01 04:30:12;;;;;;;0.10;0.10;;;;;;;20.74;40.41;101940.34;5123880;28;20159;-27
2022/05/01 04:32:56;;;;;;;0.10;0.10;;;;;;;20.75;40.42;101935.63;5127577;28;20596;-27
2022/05/01 04:35:28;;;;;;;0.10;0.10;;;;;;;20.75;40.38;101938.38;5129133;28;20138;-27
2022/05/01 04:37:59;;;;;;;0.10;0.10;;;;;;;20.74;40.42;101937.56;5111050;28;20135;-27
2022/05/01 04:40:27;;;;;;;0.10;0.10;;;;;;;20.74;40.46;101936.72;5127478;28;20078;-28
2022/05/01 04:42:53;;;;;;;0.10;0.10;;;;;;;20.73;40.28;101930.38;5107390;28;20039;-27
2022/05/01 04:45:18;;;;;;;0.20;0.20;;;;;;;20.75;40.09;101938.38;5129122;28;20461;-27
2022/05/01 04:47:45;;;;;;;0.10;0.10;;;;;;;20.74;40.26;101937.56;5107844;28;20058;-27
2022/05/01 04:50:11;;;;;;;0.10;0.10;;;;;;;20.74;40.06;101940.34;5126054;28;20137;-26
2022/05/01 04:52:38;;;;;;;0.10;0.10;;;;;;;20.73;40.32;101938.66;5128024;28;20127;-27
2022/05/01 04:55:05;;;;;;;0.10;0.10;;;;;;;20.74;40.51;101934.78;5110349;28;20126;-28
2022/05/01 04:57:31;;;;;;;0.10;0.10;;;;;;;20.75;40.32;101938.38;5127430;28;20130;-27
2022/05/01 04:59:56;;;;;;;0.10;0.10;;;;;;;20.73;40.14;101946.16;5128135;28;20418;-27
2022/05/01 05:02:22;;;;;;;0.17;0.17;;;;;;;20.74;40.09;101933.97;5125932;28;20043;-28
2022/05/01 05:04:49;;;;;;;0.10;0.10;;;;;;;20.73;40.39;101944.19;5128190;28;20105;-27
2022/05/01 05:07:15;;;;;;;0.10;0.10;;;;;;;20.74;40.32;101942.28;5128648;28;20082;-28
2022/05/01 05:09:56;;;;;;;0.10;0.10;;;;;;;20.74;40.42;101947.81;5126423;27;20047;-27
2022/05/01 05:12:22;;;;;;;0.10;0.10;;;;;;;20.74;40.30;101939.50;5125460;28;20181;-28
2022/05/01 05:14:51;;;;;;;0.10;0.10;;;;;;;20.73;40.36;101941.44;5107704;28;20557;-26
2022/05/01 05:17:19;;;;;;;0.10;0.10;;;;;;;20.74;40.32;101942.28;5125210;28;20188;-27
2022/05/01 05:19:46;;;;;;;0.10;0.10;;;;;;;20.73;40.24;101943.38;5125158;27;20127;-27
2022/05/01 05:22:12;;;;;;;0.10;0.10;;;;;;;20.74;40.38;101950.56;5129070;28;20500;-27
2022/05/01 05:24:38;;;;;;;0.10;0.10;;;;;;;20.74;40.33;101948.63;5128042;28;20047;-28
2022/05/01 05:27:04;;;;;;;0.10;0.10;;;;;;;20.74;40.44;101947.81;5128658;28;20145;-27
2022/05/01 05:29:29;;;;;;;0.20;0.20;;;;;;;20.73;40.22;101943.38;5127692;28;20122;-28
2022/05/01 05:31:55;;;;;;;0.10;0.10;;;;;;;20.73;40.60;101949.75;5126935;28;20091;-27
2022/05/01 05:34:21;;;;;;;0.20;0.20;;;;;;;20.73;40.23;101951.69;5127704;28;20043;-27
2022/05/01 05:36:46;;;;;;;0.10;0.10;;;;;;;20.73;40.27;101957.22;5125912;27;20084;-27
2022/05/01 05:39:12;;;;;;;0.20;0.20;;;;;;;20.73;40.41;101957.22;5128058;28;20049;-27
2022/05/01 05:41:38;;;;;;;0.13;0.13;;;;;;;20.73;40.47;101963.59;5109317;28;20553;-27
2022/05/01 05:44:04;;;;;;;0.10;0.10;;;;;;;20.72;40.32;101959.13;5122917;28;20508;-27
2022/05/01 05:46:30;;;;;;;0.20;0.20;;;;;;;20.73;40.16;101962.75;5109180;28;20397;-27
2022/05/01 05:48:56;;;;;;;0.20;0.20;;;;;;;20.73;40.26;101960.81;5126296;28;20114;-27
2022/05/01 05:51:22;;;;;;;0.10;0.10;;;;;;;20.73;40.14;101962.75;5126177;28;20094;-26
2022/05/01 05:53:51;;;;;;;0.10;0.10;;;;;;;20.73;40.34;101962.75;5127413;28;20043;-27
2022/05/01 05:56:17;;;;;;;0.10;0.10;;;;;;;20.72;40.27;101956.34;5125010;28;20120;-28
2022/05/01 05:58:43;;;;;;;0.10;0.10;;;;;;;20.72;40.45;101959.13;5125944;28;20462;-28
2022/05/01 06:01:10;;;;;;;0.10;0.10;;;;;;;20.72;40.29;101961.88;5105124;27;20512;-28
2022/05/01 06:03:36;;;;;;;0.20;0.20;;;;;;;20.72;40.27;101959.13;5126122;28;20051;-28
2022/05/01 06:06:03;;;;;;;0.10;0.10;;;;;;;20.74;40.30;101956.09;5126550;28;20047;-28
2022/05/01 06:08:28;;;;;;;0.13;0.13;;;;;;;20.73;40.27;101957.22;5126995;28;20080;-27
2022/05/01 06:10:54;;;;;;;0.10;0.10;;;;;;;20.72;40.28;101966.59;5126249;28;20092;-28
2022/05/01 06:13:20;;;;;;;0.20;0.20;;;;;;;20.73;40.31;101962.75;5126726;28;20047;-28
2022/05/01 06:15:46;;;;;;;0.20;0.20;;;;;;;20.72;40.10;101961.06;5126862;28;20484;-28
2022/05/01 06:18:12;;;;;;;0.10;0.10;;;;;;;20.73;40.08;101965.53;5124777;28;20066;-28
2022/05/01 06:20:37;;;;;;;0.20;0.20;;;;;;;20.73;40.13;101959.97;5126590;28;20043;-27
2022/05/01 06:23:03;;;;;;;0.10;0.10;;;;;;;20.73;40.31;101966.34;5127051;28;20091;-27
2022/05/01 06:25:29;;;;;;;0.20;0.20;;;;;;;20.72;40.15;101972.13;5126826;28;20473;-27
2022/05/01 06:27:55;;;;;;;0.20;0.20;;;;;;;20.71;40.43;101965.78;5127676;28;20043;-27
2022/05/01 06:30:21;;;;;;;0.15;0.15;;;;;;;20.72;40.31;101961.06;5127736;27;20035;-27
2022/05/01 06:32:47;;;;;;;0.20;0.20;;;;;;;20.72;40.27;101969.38;5109693;28;20083;-28
2022/05/01 06:35:13;;;;;;;0.20;0.20;;;;;;;20.71;40.18;101963.00;5130969;28;20082;-28
2022/05/01 06:37:38;;;;;;;0.20;0.20;;;;;;;20.72;40.40;101963.84;5111143;28;20045;-28
2022/05/01 06:40:05;;;;;;;0.10;0.10;;;;;;;20.73;40.34;101962.75;5129128;28;20051;-27
2022/05/01 06:42:32;;;;;;;0.10;0.10;;;;;;;20.73;40.50;101971.06;5129575;28;20082;-28
2022/05/01 06:44:57;;;;;;;0.20;0.20;;;;;;;20.72;40.51;101970.19;5112111;28;20088;-28
2022/05/01 06:47:23;;;;;;;0.20;0.20;;;;;;;20.72;40.34;101969.38;5110742;28;20095;-28
2022/05/01 06:49:49;;;;;;;0.17;0.17;;;;;;;20.72;40.78;101969.38;5129336;28;20039;-27
2022/05/01 06:52:19;;;;;;;0.10;0.10;;;;;;;20.72;40.35;101972.13;5129953;28;20039;-27
2022/05/01 06:54:45;;;;;;;0.10;0.10;;;;;;;20.72;40.21;101972.13;5130230;28;20070;-28
2022/05/01 06:57:10;;;;;;;0.10;0.10;;;;;;;20.70;40.43;101964.09;5130327;27;20099;-27
2022/05/01 06:59:36;;;;;;;0.10;0.10;;;;;;;20.71;40.12;101965.78;5129995;28;20063;-27
2022/05/01 07:02:02;;;;;;;0.10;0.10;;;;;;;20.72;40.25;101963.84;5125186;28;20405;-27
2022/05/01 07:04:27;;;;;;;0.10;0.10;;;;;;;20.72;40.43;101974.91;5130849;28;20047;-27
2022/05/01 07:06:53;;;;;;;0.20;0.20;;;;;;;20.71;40.35;101973.25;5127843;28;20069;-28
2022/05/01 07:09:19;;;;;;;0.15;0.15;;;;;;;20.71;40.36;101965.78;5127221;28;20043;-28
2022/05/01 07:11:44;;;;;;;0.15;0.15;;;;;;;20.71;40.40;101967.69;5129634;28;20067;-28
2022/05/01 07:14:10;;;;;;;0.10;0.10;;;;;;;20.71;40.23;101976.84;5128663;28;20044;-28
2022/05/01 07:16:36;;;;;;;0.10;0.10;;;;;;;20.71;40.44;101971.31;5128601;28;20435;-28
2022/05/01 07:19:01;;;;;;;0.10;0.10;;;;;;;20.72;40.23;101981.28;5127613;28;20047;-28
2022/05/01 07:21:27;;;;;;;0.10;0.10;;;;;;;20.71;40.66;101973.25;5129686;28;20051;-27
2022/05/01 07:23:53;;;;;;;0.10;0.10;;;;;;;20.71;40.38;101974.06;5128358;28;20042;-28
2022/05/01 07:26:18;;;;;;;0.10;0.10;;;;;;;20.71;40.54;101978.78;5129111;28;20055;-28
2022/05/01 07:28:44;;;;;;;0.10;0.10;;;;;;;20.72;40.42;101972.13;5128129;28;20051;-26
2022/05/01 07:31:10;;;;;;;0.10;0.10;;;;;;;20.71;40.55;101976.00;5129197;28;20066;-27
2022/05/01 07:33:35;;;;;;;0.10;0.10;;;;;;;20.72;40.24;101974.91;5127794;28;20076;-28
2022/05/01 07:36:01;;;;;;;0.10;0.10;;;;;;;20.72;40.52;101974.91;5130712;28;20036;-27
2022/05/01 07:38:27;;;;;;;0.10;0.10;;;;;;;20.72;40.29;101977.66;5129119;27;20405;-27
2022/05/01 07:40:53;;;;;;;0.10;0.10;;;;;;;20.70;40.14;101980.72;5129225;27;20050;-28
2022/05/01 07:43:19;;;;;;;0.10;0.10;;;;;;;20.71;40.37;101981.53;5128998;28;20484;-28
2022/05/01 07:45:45;;;;;;;0.10;0.10;;;;;;;20.72;40.25;101977.66;5130473;28;20078;-28
2022/05/01 07:48:12;;;;;;;0.10;0.10;;;;;;;20.70;40.37;101975.19;5128201;28;20066;-27
2022/05/01 07:50:38;;;;;;;0.10;0.10;;;;;;;20.71;40.25;101984.31;5127102;28;20482;-28
2022/05/01 07:53:04;;;;;;;0.10;0.10;;;;;;;20.70;40.39;101979.88;5129870;28;20435;-27
2022/05/01 07:55:29;;;;;;;0.20;0.20;;;;;;;20.71;40.21;101976.84;5128228;28;20062;-28
2022/05/01 07:57:55;;;;;;;0.10;0.10;;;;;;;20.71;40.43;101987.91;5127842;27;20088;-28
2022/05/01 08:00:21;;;;;;;0.10;0.10;;;;;;;20.70;40.30;101980.72;5127398;27;20432;-27
2022/05/01 08:05:32;;;;;;;0.10;0.10;;;;;;;20.70;40.43;101971.59;5113345;28;20490;-27
2022/05/01 08:07:57;;;;;;;0.10;0.10;;;;;;;20.70;40.21;101982.66;5123754;28;20100;-27
2022/05/01 08:10:23;;;;;;;0.20;0.20;;;;;;;20.71;40.25;101976.00;5129075;28;20404;-27
2022/05/01 08:12:49;;;;;;;0.15;0.15;;;;;;;20.70;40.62;101980.72;5126456;28;20064;-27
2022/05/01 08:15:17;;;;;;;0.20;0.20;;;;;;;20.70;40.25;101982.66;5110991;28;20577;-27
2022/05/01 08:17:44;;;;;;;0.10;0.10;;;;;;;20.69;40.21;101979.06;5125310;28;20086;-28
2022/05/01 08:23:04;;;;;;;0.10;0.10;;;;;;;20.69;40.42;101984.59;5111648;28;20133;-27
2022/05/01 08:25:30;;;;;;;0.10;0.10;;;;;;;20.70;40.35;101983.47;5106982;28;20124;-27
2022/05/01 08:27:56;;;;;;;0.10;0.10;;;;;;;20.71;40.44;101982.38;5126589;28;20035;-28
2022/05/01 08:30:21;;;;;;;0.10;0.10;;;;;;;20.69;40.46;101978.22;5128150;28;20663;-28
2022/05/01 08:32:47;;;;;;;0.10;0.10;;;;;;;20.70;40.52;101988.19;5126705;28;20463;-27
2022/05/01 08:35:13;;;;;;;0.10;0.10;;;;;;;20.70;40.24;101982.66;5127443;28;20397;-27
2022/05/01 08:37:40;;;;;;;0.15;0.15;;;;;;;20.70;40.22;101980.72;5126668;28;20067;-28
2022/05/01 08:40:07;;;;;;;0.10;0.10;;;;;;;20.69;40.28;101973.53;5128093;28;20122;-28
2022/05/01 08:42:36;;;;;;;0.10;0.10;;;;;;;20.69;40.53;101979.06;5127381;28;20078;-28
2022/05/01 08:45:02;;;;;;;;;;;;;;;20.69;40.19;101979.06;5128669;28;20664;-27
2022/05/01 08:47:35;;;;;;;0.20;0.20;;;;;;;20.69;40.33;101973.53;5126776;28;19933;-28
2022/05/01 08:50:02;;;;;;;0.20;0.20;;;;;;;20.69;40.67;101979.06;5107846;28;20067;-27
2022/05/01 08:52:29;;;;;;;0.10;0.10;;;;;;;20.69;40.56;101972.69;5127141;27;20050;-28
2022/05/01 08:54:56;;;;;;;0.10;0.10;;;;;;;20.69;40.27;101970.75;5125806;28;20609;-28
2022/05/01 08:57:22;;;;;;;0.10;0.10;;;;;;;20.69;40.16;101975.47;5126949;28;20465;-28
2022/05/01 08:59:52;;;;;;;0.10;0.10;;;;;;;20.69;40.42;101976.28;5127052;28;20504;-26
2022/05/01 09:02:17;;;;;;;0.10;0.10;;;;;;;20.69;40.52;101975.47;5128186;28;20533;-28
2022/05/01 09:04:43;;;;;;;0.10;0.10;;;;;;;20.69;40.34;101973.53;5126830;28;20043;-26
2022/05/01 09:07:10;;;;;;;0.20;0.20;;;;;;;20.70;40.19;101974.34;5108774;28;20039;-27
2022/05/01 09:09:35;;;;;;;0.20;0.20;;;;;;;20.69;40.43;101975.47;5127163;28;20074;-27
2022/05/01 09:14:49;;;;;;;0.20;0.20;;;;;;;20.69;40.26;101969.91;5113484;28;20066;-28
2022/05/01 09:17:21;;;;;;;0.17;0.17;;;;;;;20.69;40.26;101970.75;5128140;28;20081;-28
2022/05/01 09:19:49;;;;;;;0.10;0.10;;;;;;;20.69;40.33;101967.16;5125720;28;20046;-28
2022/05/01 09:22:16;;;;;;;0.10;0.10;;;;;;;20.68;40.31;101969.09;5127600;28;20126;-28
2022/05/01 09:24:42;;;;;;;0.20;0.20;;;;;;;20.70;40.52;101982.66;5108763;28;20190;-27
2022/05/01 09:27:27;;;;;;;0.10;0.10;;;;;;;20.69;40.28;101979.06;5125350;28;20047;-28
2022/05/01 09:30:11;;;;;;;0.10;0.10;;;;;;;20.68;40.44;101971.84;5109471;28;20074;-28
2022/05/01 09:32:38;;;;;;;0.10;0.10;;;;;;;20.68;40.26;101977.41;5125420;28;20071;-27
2022/05/01 09:35:06;;;;;;;0.10;0.10;;;;;;;20.69;40.25;101976.28;5125374;28;20134;-27
2022/05/01 09:37:32;;;;;;;0.10;0.10;;;;;;;20.69;40.47;101976.28;5125716;27;20075;-27
2022/05/01 09:39:57;;;;;;;0.10;0.10;;;;;;;20.68;40.53;101974.63;5128475;28;20043;-27
2022/05/01 09:42:25;;;;;;;0.10;0.10;;;;;;;20.68;40.26;101974.63;5126759;28;20058;-27
2022/05/01 09:45:03;;;;;;;0.10;0.10;;;;;;;20.69;40.46;101970.75;5127156;28;20456;-27
2022/05/01 09:47:41;;;;;;;0.10;0.10;;;;;;;20.69;40.29;101975.47;5126929;28;20081;-28
2022/05/01 09:50:08;;;;;;;0.10;0.10;;;;;;;20.69;40.11;101972.69;5124664;28;20499;-28
2022/05/01 09:52:55;;;;;;;0.10;0.10;;;;;;;20.69;40.36;101970.75;5128220;28;20126;-27
2022/05/01 09:55:22;;;;;;;0.10;0.10;;;;;;;20.69;40.46;101972.69;5112479;28;20126;-28
2022/05/01 09:57:47;;;;;;;0.10;0.10;;;;;;;20.69;40.51;101975.47;5108450;28;20130;-27
2022/05/01 10:00:13;;;;;;;0.10;0.10;;;;;;;20.68;40.40;101977.41;5126078;28;20100;-27
2022/05/01 10:02:39;;;;;;;0.10;0.10;;;;;;;20.68;40.13;101966.31;5126523;28;20490;-28
2022/05/01 10:05:08;;;;;;;0.20;0.20;;;;;;;20.69;40.47;101978.22;5127268;27;20065;-27
2022/05/01 10:07:37;;;;;;;0.10;0.10;;;;;;;20.69;40.39;101967.16;5125828;28;20161;-27
2022/05/01 10:10:08;;;;;;;0.10;0.10;;;;;;;20.68;40.25;101966.31;5125053;28;20100;-28
2022/05/01 10:12:41;;;;;;;0.10;0.10;;;;;;;20.68;40.45;101962.69;5126007;28;20077;-27
2022/05/01 10:15:08;;;;;;;0.17;0.17;;;;;;;20.67;40.53;101967.41;5107460;28;20274;-27
2022/05/01 10:17:34;;;;;;;0.10;0.10;;;;;;;20.68;40.55;101971.84;5088639;28;20088;-27
2022/05/01 10:20:02;;;;;;;0.20;0.20;;;;;;;20.69;40.50;101964.38;5102558;28;20040;-27
2022/05/01 10:22:28;;;;;;;0.10;0.10;;;;;;;20.69;40.21;101972.69;5103351;28;20477;-27
2022/05/01 10:24:53;;;;;;;0.10;0.10;;;;;;;20.69;40.22;101967.16;5105402;28;20056;-27
2022/05/01 10:27:32;;;;;;;0.10;0.10;;;;;;;20.68;40.13;101965.47;5104599;28;20136;-27
2022/05/01 10:32:49;;;;;;;0.20;0.20;;;;;;;20.69;40.33;101954.16;5164929;27;20205;-31
2022/05/01 10:36:10;;;;;;;0.10;0.10;;;;;;;20.67;40.44;101959.09;5136261;27;20039;-30
2022/05/01 10:39:03;;;;;;;0.20;0.20;;;;;;;20.67;40.34;101961.03;5130920;27;20088;-30
2022/05/01 10:41:30;;;;;;;0.10;0.10;;;;;;;20.68;40.44;101951.63;5144404;27;20088;-27
2022/05/01 10:43:58;;;;;;;0.10;0.10;;;;;;;20.67;40.20;101945.25;5147103;27;20142;-29
2022/05/01 10:49:05;;;;;;;0.20;0.20;;;;;;;20.68;40.10;101949.72;5160272;27;20567;-24
2022/05/01 10:51:41;;;;;;;0.13;0.13;;;;;;;20.68;40.45;101944.19;5145689;27;20437;-24
2022/05/01 10:56:49;;;;;;;0.10;0.10;;;;;;;20.67;40.38;101936.94;5176945;27;20229;-28
2022/05/01 10:59:38;;;;;;;0.10;0.10;;;;;;;20.67;40.44;101930.59;5113038;27;20042;-27
2022/05/01 11:02:28;;;;;;;0.10;0.10;;;;;;;20.67;40.28;101934.19;5163587;27;20259;-28
2022/05/01 11:04:55;;;;;;;0.15;0.15;;;;;;;20.68;40.45;101935.88;5149933;27;20085;-27
2022/05/01 11:07:23;;;;;;;0.10;0.10;;;;;;;20.67;40.25;101936.94;5145428;27;20062;-28
2022/05/01 11:09:49;;;;;;;0.10;0.10;;;;;;;20.67;40.46;101928.66;5146613;27;20070;-29
2022/05/01 11:12:19;;;;;;;0.10;0.10;;;;;;;20.68;40.50;101930.34;5165211;27;20039;-28
2022/05/01 11:15:04;;;;;;;0.10;0.10;;;;;;;20.67;40.44;101920.34;5146481;27;20528;-29
2022/05/01 11:23:26;;;;;;;0.20;0.20;;;;;;;20.67;40.36;101919.50;5174585;27;20116;-24
2022/05/01 11:26:04;;;;;;;0.20;0.20;;;;;;;20.68;40.31;101915.63;5133186;27;20081;-25
2022/05/01 11:28:41;;;;;;;0.20;0.20;;;;;;;20.68;40.27;101918.41;5165340;27;20141;-25
2022/05/01 11:31:43;;;;;;;0.10;0.10;;;;;;;20.68;40.42;101910.09;5145941;27;20084;-25
2022/05/01 11:37:01;;;;;;;0.10;0.10;;;;;;;20.67;40.29;101911.22;5155800;27;20153;-24
2022/05/01 11:45:04;;;;;;;0.20;0.20;;;;;;;20.68;40.42;101901.78;5159776;27;20448;-25
2022/05/01 11:47:32;;;;;;;0.10;0.10;;;;;;;20.66;40.18;101891.00;5156677;27;20046;-25
2022/05/01 11:49:58;;;;;;;0.10;0.10;;;;;;;20.68;40.35;101893.50;5141579;27;20133;-25
2022/05/01 11:52:24;;;;;;;0.20;0.20;;;;;;;20.67;40.10;101889.91;5153529;27;20050;-25
2022/05/01 11:54:53;;;;;;;0.20;0.20;;;;;;;20.67;40.43;101889.91;5155396;27;20097;-25
2022/05/01 12:02:24;;;;;;;0.10;0.10;;;;;;;20.68;40.46;101880.50;5125507;27;20085;-24
2022/05/01 12:02:57;;;;;;;;;;;;;;;20.68;40.23;101874.13;5127098;27;20126;-27
2022/05/01 12:05:23;;;;;;;0.10;0.10;;;;;;;20.65;40.30;101872.75;5157031;27;19962;-25
2022/05/01 12:07:55;;;;;;;0.20;0.20;;;;;;;20.66;40.44;101871.63;5138422;27;20053;-25
2022/05/01 12:10:21;;;;;;;0.10;0.10;;;;;;;20.68;40.44;101874.13;5134985;27;20177;-24
2022/05/01 12:12:47;;;;;;;0.20;0.20;;;;;;;20.67;40.32;101859.44;5136918;27;20074;-24